Time;durP1;ratioP1;P1;durP2;ratioP2;P2;SDS_P1;SDS_P2;PMS_P1;PMS_P2;Temp;Humidity;BMP_temperature;BMP_pressure;BME280_temperature;BME280_humidity;BME280_pressure;Samples;Min_cycle;Max_cycle;Signal;HPM_P1;HPM_P2
2021/12/01 00:00:19;;;;;;;17.25;6.22;;;12.60;99.90;;;;;;6185098;23;20092;-84
2021/12/01 00:02:53;;;;;;;9.27;3.45;;;9.80;99.90;;;;;;6158739;23;20051;-83
2021/12/01 00:05:21;;;;;;;15.45;4.93;;;10.50;99.90;;;;;;6158645;23;20009;-83
2021/12/01 00:07:48;;;;;;;22.27;5.85;;;11.00;99.90;;;;;;6158546;23;20089;-83
2021/12/01 00:10:14;;;;;;;11.73;4.00;;;13.10;99.90;;;;;;6134022;23;20016;-83
2021/12/01 00:12:40;;;;;;;14.55;3.95;;;12.60;99.90;;;;;;6158516;23;20099;-83
2021/12/01 00:15:07;;;;;;;10.18;3.35;;;9.90;99.90;;;;;;6158689;23;20017;-83
2021/12/01 00:17:33;;;;;;;11.63;3.05;;;10.40;99.90;;;;;;6158426;23;20083;-83
2021/12/01 00:19:59;;;;;;;14.05;3.92;;;10.90;99.90;;;;;;6158377;23;20079;-84
2021/12/01 00:22:26;;;;;;;12.90;3.88;;;10.90;99.90;;;;;;6159027;23;20426;-83
2021/12/01 00:24:52;;;;;;;15.85;3.92;;;10.00;99.90;;;;;;6158882;23;20086;-83
2021/12/01 00:27:18;;;;;;;11.10;3.65;;;9.50;99.90;;;;;;6134043;23;20013;-83
2021/12/01 00:29:43;;;;;;;8.45;3.05;;;11.50;99.90;;;;;;6158531;23;20091;-83
2021/12/01 00:32:09;;;;;;;8.38;3.05;;;8.40;99.90;;;;;;6158685;23;20032;-83
2021/12/01 00:34:35;;;;;;;11.00;3.85;;;8.50;99.90;;;;;;6158445;23;20010;-84
2021/12/01 00:37:01;;;;;;;11.07;3.60;;;8.30;99.90;;;;;;6158436;23;20301;-83
2021/12/01 00:39:26;;;;;;;10.48;3.47;;;14.60;99.90;;;;;;6158569;23;20013;-83
2021/12/01 00:41:53;;;;;;;10.35;3.53;;;10.30;99.90;;;;;;6134013;23;20090;-83
2021/12/01 00:44:19;;;;;;;7.63;3.33;;;13.50;99.90;;;;;;6158524;23;20021;-84
2021/12/01 00:46:55;;;;;;;13.10;3.33;;;13.00;99.90;;;;;;6158701;23;20467;-84
2021/12/01 00:49:21;;;;;;;9.55;3.45;;;8.30;99.90;;;;;;6158686;23;20151;-83
2021/12/01 00:51:47;;;;;;;9.50;3.42;;;8.30;99.90;;;;;;6158364;23;20419;-83
2021/12/01 00:54:13;;;;;;;17.52;4.40;;;10.20;99.90;;;;;;6158299;23;20451;-83
2021/12/01 00:57:04;;;;;;;15.07;4.18;;;13.80;99.90;;;;;;6163664;23;20028;-83
2021/12/01 00:59:30;;;;;;;11.32;4.03;;;9.60;99.90;;;;;;6158061;23;20021;-83
2021/12/01 01:01:55;;;;;;;20.85;4.03;;;13.20;99.90;;;;;;6158422;23;20009;-83
2021/12/01 01:04:21;;;;;;;9.95;3.40;;;9.30;99.90;;;;;;6158180;23;20021;-84
2021/12/01 01:06:47;;;;;;;12.25;3.47;;;13.90;99.90;;;;;;6158429;23;20005;-84
2021/12/01 01:09:13;;;;;;;11.75;2.75;;;8.30;99.90;;;;;;6134250;23;20866;-85
2021/12/01 01:17:13;;;;;;;16.15;2.80;;;14.00;99.90;;;;;;6157958;23;20563;-85
2021/12/01 01:19:39;;;;;;;14.30;2.65;;;12.80;99.90;;;;;;6158551;23;20053;-84
2021/12/01 01:22:07;;;;;;;11.40;3.17;;;11.70;99.90;;;;;;6160053;23;20371;-83
2021/12/01 01:24:34;;;;;;;12.23;2.20;;;13.60;99.90;;;;;;6135436;23;20031;-83
2021/12/01 01:27:00;;;;;;;9.50;2.78;;;9.40;99.90;;;;;;6159684;23;20072;-83
2021/12/01 01:29:26;;;;;;;10.15;2.72;;;11.30;99.90;;;;;;6159995;23;20010;-83
2021/12/01 01:31:56;;;;;;;13.07;3.13;;;12.70;99.90;;;;;;6159906;23;20092;-84
2021/12/01 01:34:23;;;;;;;12.68;2.90;;;9.50;99.90;;;;;;6159830;23;20017;-83
2021/12/01 01:36:49;;;;;;;6.75;2.67;;;11.20;99.90;;;;;;6159747;23;20027;-83
2021/12/01 01:39:15;;;;;;;14.85;2.67;;;13.40;99.90;;;;;;6135393;23;20462;-83
2021/12/01 01:41:41;;;;;;;9.23;2.80;;;10.80;99.90;;;;;;6160185;23;20383;-83
2021/12/01 01:44:06;;;;;;;10.73;2.90;;;9.70;99.90;;;;;;6159515;23;20016;-83
2021/12/01 01:46:35;;;;;;;8.55;2.95;;;12.70;99.90;;;;;;6159794;23;20079;-83
2021/12/01 01:49:13;;;;;;;13.05;3.13;;;12.10;99.90;;;;;;6159817;23;20014;-84
2021/12/01 01:51:40;;;;;;;14.10;2.65;;;11.50;99.90;;;;;;6160405;23;20013;-83
2021/12/01 01:54:06;;;;;;;11.38;2.65;;;12.80;99.90;;;;;;6159898;23;20031;-83
2021/12/01 01:56:31;;;;;;;14.82;2.97;;;12.20;99.90;;;;;;6159757;23;20049;-83
2021/12/01 01:58:57;;;;;;;5.30;2.03;;;10.30;99.90;;;;;;6160166;23;20017;-84
2021/12/01 02:04:09;;;;;;;13.93;2.55;;;12.00;99.90;;;;;;6159567;23;20017;-84
2021/12/01 02:06:36;;;;;;;8.18;2.03;;;13.50;99.90;;;;;;6159855;23;20013;-84
2021/12/01 02:09:02;;;;;;;15.20;2.50;;;13.20;99.90;;;;;;6159812;23;20020;-83
2021/12/01 02:11:29;;;;;;;10.23;2.90;;;12.10;99.90;;;;;;6159784;23;20009;-84
2021/12/01 02:13:56;;;;;;;11.02;2.65;;;11.80;99.90;;;;;;6135028;23;20027;-83
2021/12/01 02:16:22;;;;;;;12.27;2.35;;;11.90;99.90;;;;;;6135175;23;20446;-84
2021/12/01 02:18:49;;;;;;;13.23;2.28;;;12.40;99.90;;;;;;6134958;23;20116;-84
2021/12/01 02:21:26;;;;;;;11.25;2.65;;;10.00;99.90;;;;;;6159790;23;20380;-83
2021/12/01 02:23:52;;;;;;;15.50;2.95;;;11.30;99.90;;;;;;6159615;23;20025;-83
2021/12/01 02:26:20;;;;;;;8.20;2.40;;;13.90;99.90;;;;;;6134980;23;20316;-83
2021/12/01 02:28:48;;;;;;;27.65;3.40;;;9.70;99.90;;;;;;6159565;23;20317;-83
2021/12/01 02:31:14;;;;;;;10.77;2.47;;;12.20;99.90;;;;;;6159572;23;20092;-83
2021/12/01 02:33:40;;;;;;;11.93;2.90;;;11.60;99.90;;;;;;6186113;23;20047;-84
2021/12/01 02:36:11;;;;;;;16.55;3.78;;;12.60;99.90;;;;;;6159801;23;20084;-84
2021/12/01 02:38:40;;;;;;;13.40;2.70;;;13.20;99.90;;;;;;6134182;23;20021;-84
2021/12/01 02:41:06;;;;;;;14.65;3.05;;;10.50;99.90;;;;;;6159774;23;20518;-84
2021/12/01 02:43:33;;;;;;;10.80;2.47;;;9.50;99.90;;;;;;6159599;23;20017;-83
2021/12/01 02:45:58;;;;;;;19.30;3.75;;;11.40;99.90;;;;;;6159515;23;20102;-83
2021/12/01 02:48:24;;;;;;;24.65;3.67;;;9.70;99.90;;;;;;6159371;23;20444;-84
2021/12/01 02:51:41;;;;;;;12.90;2.95;;;9.10;99.90;;;;;;6159334;23;20072;-84
2021/12/01 02:54:07;;;;;;;13.80;2.97;;;10.30;99.90;;;;;;6159431;23;20099;-84
2021/12/01 02:56:34;;;;;;;16.60;3.80;;;9.80;99.90;;;;;;6159258;23;20102;-83
2021/12/01 02:59:02;;;;;;;16.42;3.88;;;13.00;99.90;;;;;;6159229;23;20017;-83
2021/12/01 03:01:29;;;;;;;23.08;3.60;;;10.00;99.90;;;;;;6158984;23;20017;-83
2021/12/01 03:03:56;;;;;;;7.15;2.47;;;11.90;99.90;;;;;;6159076;23;20344;-83
2021/12/01 03:06:25;;;;;;;13.60;3.67;;;12.80;99.90;;;;;;6134468;23;20354;-83
2021/12/01 03:08:51;;;;;;;14.23;3.45;;;10.20;99.90;;;;;;6159229;23;20016;-84
2021/12/01 03:11:17;;;;;;;14.35;3.30;;;11.30;99.90;;;;;;6159177;23;20320;-83
2021/12/01 03:13:43;;;;;;;13.77;2.97;;;12.80;99.90;;;;;;6158865;23;20023;-83
2021/12/01 03:16:09;;;;;;;13.02;3.38;;;11.90;99.90;;;;;;6159090;23;20019;-84
2021/12/01 03:18:34;;;;;;;13.60;3.42;;;11.30;99.90;;;;;;6134302;23;20017;-83
2021/12/01 03:21:00;;;;;;;26.85;3.63;;;11.70;99.90;;;;;;6159019;23;20037;-83
2021/12/01 03:23:27;;;;;;;19.63;3.47;;;11.30;99.90;;;;;;6158904;23;20013;-83
2021/12/01 03:25:53;;;;;;;9.20;2.40;;;9.40;99.90;;;;;;6159021;23;20017;-83
2021/12/01 03:28:19;;;;;;;13.57;3.22;;;9.60;99.90;;;;;;6158932;23;20025;-84
2021/12/01 03:30:47;;;;;;;20.15;4.75;;;12.60;99.90;;;;;;6159010;23;20017;-84
2021/12/01 03:33:17;;;;;;;15.75;3.10;;;10.30;99.90;;;;;;6158982;23;20020;-83
2021/12/01 03:35:45;;;;;;;14.52;3.08;;;11.10;99.90;;;;;;6158755;23;20013;-83
2021/12/01 03:38:11;;;;;;;22.13;4.13;;;12.20;99.90;;;;;;6158754;23;20121;-83
2021/12/01 03:40:39;;;;;;;18.35;3.20;;;10.50;99.90;;;;;;6158966;23;20384;-83
2021/12/01 03:43:05;;;;;;;18.15;4.07;;;12.40;99.90;;;;;;6158660;23;20013;-83
2021/12/01 03:48:23;;;;;;;19.52;3.72;;;11.90;99.90;;;;;;6158819;23;20036;-84
2021/12/01 03:50:52;;;;;;;22.13;3.80;;;9.70;99.90;;;;;;6158741;23;20023;-84
2021/12/01 03:53:19;;;;;;;16.15;3.75;;;9.50;99.90;;;;;;6158967;23;20345;-83
2021/12/01 03:55:46;;;;;;;17.80;4.20;;;10.60;99.90;;;;;;6158812;23;20379;-84
2021/12/01 03:58:13;;;;;;;19.02;3.25;;;9.30;99.90;;;;;;6158607;23;20017;-83
2021/12/01 04:00:38;;;;;;;20.42;4.63;;;10.10;99.90;;;;;;6158596;23;20088;-83
2021/12/01 04:03:04;;;;;;;23.38;4.30;;;8.90;99.90;;;;;;6158732;23;20130;-84
2021/12/01 04:05:31;;;;;;;20.40;4.50;;;13.50;99.90;;;;;;6185280;23;20095;-83
2021/12/01 04:08:01;;;;;;;16.83;4.18;;;11.20;99.90;;;;;;6185306;23;20028;-84
2021/12/01 04:10:28;;;;;;;20.63;3.95;;;13.10;99.90;;;;;;6159225;23;20395;-84
2021/12/01 04:12:54;;;;;;;22.65;4.25;;;11.30;99.90;;;;;;6158842;23;20325;-84
2021/12/01 04:15:20;;;;;;;25.88;4.30;;;9.40;99.90;;;;;;6158681;23;20060;-84
2021/12/01 04:17:46;;;;;;;23.80;4.72;;;10.00;99.90;;;;;;6158414;23;20044;-84
2021/12/01 04:20:15;;;;;;;23.48;4.75;;;10.50;99.90;;;;;;6158517;23;20017;-84
2021/12/01 04:22:42;;;;;;;23.92;5.00;;;9.70;99.90;;;;;;6134362;23;20088;-84
2021/12/01 04:25:08;;;;;;;17.45;4.10;;;10.50;99.90;;;;;;6134032;23;20013;-84
2021/12/01 04:27:36;;;;;;;23.75;4.75;;;9.00;99.90;;;;;;6158631;23;20095;-84
2021/12/01 04:30:04;;;;;;;18.50;4.47;;;10.00;99.90;;;;;;6158560;23;20017;-84
2021/12/01 04:32:29;;;;;;;15.57;3.63;;;9.80;99.90;;;;;;6158697;23;20021;-84
2021/12/01 04:34:57;;;;;;;11.88;3.10;;;9.70;99.90;;;;;;6158693;23;20020;-84
2021/12/01 04:37:24;;;;;;;19.30;4.38;;;10.10;99.90;;;;;;6185119;23;20021;-84
2021/12/01 04:39:50;;;;;;;24.48;5.07;;;9.50;99.90;;;;;;6158440;23;20017;-84
2021/12/01 04:42:16;;;;;;;17.73;3.95;;;13.10;99.90;;;;;;6158741;23;20451;-84
2021/12/01 04:44:42;;;;;;;24.13;3.95;;;9.70;99.90;;;;;;6158421;23;20083;-84
2021/12/01 04:47:12;;;;;;;19.48;3.88;;;14.80;99.90;;;;;;6158263;23;20024;-84
2021/12/01 04:49:39;;;;;;;15.13;3.83;;;11.70;99.90;;;;;;6158539;23;20059;-84
2021/12/01 04:52:07;;;;;;;25.88;4.00;;;9.30;99.90;;;;;;6185401;23;20721;-85
2021/12/01 04:54:33;;;;;;;19.25;4.28;;;9.70;99.90;;;;;;6159305;23;20028;-84
2021/12/01 04:57:02;;;;;;;21.35;4.45;;;10.90;99.90;;;;;;6160218;23;20017;-84
2021/12/01 04:59:28;;;;;;;16.23;3.65;;;14.10;99.90;;;;;;6135725;23;20052;-84
2021/12/01 05:01:55;;;;;;;21.50;3.88;;;13.90;99.90;;;;;;6159804;23;20080;-84
2021/12/01 05:04:21;;;;;;;16.40;3.67;;;9.50;99.90;;;;;;6160188;23;20017;-84
2021/12/01 05:06:48;;;;;;;13.50;3.10;;;13.10;99.90;;;;;;6135890;23;20402;-84
2021/12/01 05:09:14;;;;;;;12.38;3.53;;;14.10;99.90;;;;;;6135647;23;20056;-85
2021/12/01 05:11:40;;;;;;;13.65;2.92;;;13.40;99.90;;;;;;6186823;23;20013;-84
2021/12/01 05:14:06;;;;;;;14.13;2.85;;;13.80;99.90;;;;;;6159997;23;20092;-84
2021/12/01 05:16:32;;;;;;;14.30;3.05;;;12.60;99.90;;;;;;6159978;23;20009;-84
2021/12/01 05:18:57;;;;;;;15.15;3.08;;;14.30;99.90;;;;;;6159881;23;20017;-84
2021/12/01 05:21:23;;;;;;;12.63;2.75;;;10.50;99.90;;;;;;6160014;23;20032;-84
2021/12/01 05:23:49;;;;;;;15.07;3.03;;;11.20;99.90;;;;;;6160553;23;20079;-84
2021/12/01 05:26:17;;;;;;;9.35;2.63;;;10.50;99.90;;;;;;6159938;23;20044;-84
2021/12/01 05:28:43;;;;;;;7.25;1.95;;;13.60;99.90;;;;;;6159956;23;20507;-84
2021/12/01 05:31:09;;;;;;;2.13;0.75;;;9.40;99.90;;;;;;6160014;23;20063;-84
2021/12/01 05:33:35;;;;;;;2.88;1.40;;;11.30;99.90;;;;;;6160237;23;20453;-84
2021/12/01 05:36:01;;;;;;;6.57;2.10;;;9.90;99.90;;;;;;6159805;23;20019;-83
2021/12/01 05:38:26;;;;;;;9.20;2.30;;;11.90;99.90;;;;;;6135159;23;20347;-84
2021/12/01 05:40:52;;;;;;;14.48;3.08;;;11.10;99.90;;;;;;6159883;23;20907;-84
2021/12/01 05:43:19;;;;;;;11.82;2.72;;;11.80;99.90;;;;;;6159624;23;20027;-84
2021/12/01 05:45:45;;;;;;;18.00;3.20;;;11.20;99.90;;;;;;6160133;23;20044;-85
2021/12/01 05:48:11;;;;;;;23.05;4.22;;;11.90;99.90;;;;;;6160116;23;20049;-84
2021/12/01 05:50:37;;;;;;;12.18;2.47;;;10.80;99.90;;;;;;6160362;23;20069;-84
2021/12/01 05:53:03;;;;;;;15.73;3.53;;;10.20;99.90;;;;;;6160002;23;20017;-84
2021/12/01 05:55:30;;;;;;;18.67;2.90;;;13.70;99.90;;;;;;6159953;23;20020;-84
2021/12/01 05:57:56;;;;;;;12.30;2.53;;;11.50;99.90;;;;;;6159821;23;20065;-85
2021/12/01 06:00:22;;;;;;;6.57;1.90;;;9.70;99.90;;;;;;6186692;23;20048;-84
2021/12/01 06:02:51;;;;;;;6.22;2.00;;;13.00;99.90;;;;;;6159481;23;20017;-84
2021/12/01 06:05:18;;;;;;;5.05;1.83;;;11.50;99.90;;;;;;6159553;23;20021;-84
2021/12/01 06:07:44;;;;;;;12.60;2.17;;;9.60;99.90;;;;;;6159811;23;20051;-84
2021/12/01 06:10:10;;;;;;;12.25;2.50;;;9.00;99.90;;;;;;6159721;23;20013;-84
2021/12/01 06:12:39;;;;;;;11.10;2.47;;;11.70;99.90;;;;;;6135194;23;20340;-84
2021/12/01 06:15:08;;;;;;;9.52;2.40;;;10.00;99.90;;;;;;6135226;23;20019;-84
2021/12/01 06:17:34;;;;;;;7.00;2.10;;;9.60;99.90;;;;;;6160106;23;20027;-84
2021/12/01 06:19:59;;;;;;;11.90;2.78;;;13.20;99.90;;;;;;6159798;23;20369;-84
2021/12/01 06:22:25;;;;;;;15.05;3.22;;;14.50;99.90;;;;;;6159807;23;20096;-84
2021/12/01 06:24:51;;;;;;;11.13;2.67;;;9.90;99.90;;;;;;6159764;23;20021;-85
2021/12/01 06:27:17;;;;;;;19.83;2.97;;;9.80;99.90;;;;;;6159684;23;20009;-84
2021/12/01 06:29:43;;;;;;;15.20;3.20;;;13.40;99.90;;;;;;6159697;23;20024;-84
2021/12/01 06:32:09;;;;;;;13.35;2.80;;;13.10;99.90;;;;;;6159626;23;20032;-83
2021/12/01 06:34:34;;;;;;;15.05;2.90;;;9.50;99.90;;;;;;6159831;23;20440;-84
2021/12/01 06:37:00;;;;;;;9.63;2.55;;;12.60;99.90;;;;;;6159666;23;20059;-84
2021/12/01 06:39:26;;;;;;;9.20;2.95;;;10.70;99.90;;;;;;6159790;23;20072;-85
2021/12/01 06:41:54;;;;;;;15.63;3.63;;;11.90;99.90;;;;;;6186265;23;20048;-84
2021/12/01 06:44:20;;;;;;;16.77;3.38;;;12.10;99.90;;;;;;6159382;23;20052;-84
2021/12/01 06:46:46;;;;;;;10.75;2.90;;;12.50;99.90;;;;;;6159460;23;20151;-84
2021/12/01 06:49:12;;;;;;;11.00;2.50;;;12.00;99.90;;;;;;6159373;23;20463;-83
2021/12/01 06:51:38;;;;;;;16.38;3.67;;;11.40;99.90;;;;;;6159460;23;20032;-84
2021/12/01 06:54:04;;;;;;;15.63;3.10;;;11.50;99.90;;;;;;6159396;23;20367;-83
2021/12/01 06:56:30;;;;;;;14.60;3.05;;;12.30;99.90;;;;;;6159399;23;20013;-84
2021/12/01 06:58:55;;;;;;;18.63;3.30;;;9.90;99.90;;;;;;6159410;23;20108;-84
2021/12/01 07:01:21;;;;;;;14.95;2.90;;;10.90;99.90;;;;;;6158572;23;20017;-84
2021/12/01 07:03:47;;;;;;;16.83;3.45;;;10.50;99.90;;;;;;6185919;23;20013;-84
2021/12/01 07:06:12;;;;;;;15.10;2.75;;;10.30;99.90;;;;;;6159189;23;20021;-84
2021/12/01 07:08:38;;;;;;;12.38;2.85;;;12.20;99.90;;;;;;6185775;23;20017;-84
2021/12/01 07:11:05;;;;;;;10.82;2.47;;;11.60;99.90;;;;;;6185899;23;20021;-84
2021/12/01 07:13:33;;;;;;;18.05;3.53;;;11.30;99.90;;;;;;6159055;23;20013;-84
2021/12/01 07:16:00;;;;;;;11.90;2.97;;;11.50;99.90;;;;;;6159179;23;20048;-85
2021/12/01 07:18:26;;;;;;;11.90;3.03;;;11.10;99.90;;;;;;6157445;23;20017;-85
2021/12/01 07:20:51;;;;;;;12.07;3.40;;;12.20;99.90;;;;;;6133169;23;20013;-85
2021/12/01 07:23:20;;;;;;;14.20;2.88;;;9.60;99.90;;;;;;6157984;23;20102;-85
2021/12/01 07:25:46;;;;;;;15.50;3.50;;;11.90;99.90;;;;;;6157908;23;20440;-85
2021/12/01 07:28:11;;;;;;;18.50;4.10;;;12.90;99.90;;;;;;6134081;23;20017;-85
2021/12/01 07:30:39;;;;;;;16.10;3.83;;;12.50;99.90;;;;;;6159344;23;20017;-85
2021/12/01 07:33:06;;;;;;;18.80;4.50;;;11.40;99.90;;;;;;6159110;23;20079;-89
2021/12/01 07:35:32;;;;;;;21.38;4.38;;;10.80;99.90;;;;;;6159616;23;20017;-88
2021/12/01 07:37:58;;;;;;;27.60;5.93;;;11.50;99.90;;;;;;6134549;23;20025;-86
2021/12/01 07:40:24;;;;;;;27.77;5.20;;;9.30;99.90;;;;;;6185731;23;20021;-85
2021/12/01 07:42:51;;;;;;;29.33;5.43;;;8.90;99.90;;;;;;6185324;23;20346;-85
2021/12/01 07:45:19;;;;;;;29.58;4.90;;;10.70;99.90;;;;;;6158990;23;20025;-86
2021/12/01 07:47:45;;;;;;;18.75;5.00;;;8.70;99.90;;;;;;6185681;23;20015;-85
2021/12/01 07:50:14;;;;;;;25.95;4.15;;;10.80;99.90;;;;;;6159315;23;20088;-92
2021/12/01 07:52:46;;;;;;;20.00;3.75;;;11.60;99.90;;;;;;6135551;23;20048;-88
2021/12/01 07:55:11;;;;;;;13.55;2.90;;;9.40;99.90;;;;;;6156985;23;20021;-89
2021/12/01 07:57:38;;;;;;;22.63;4.18;;;10.20;99.90;;;;;;6134316;23;20013;-88
2021/12/01 08:00:05;;;;;;;19.00;3.58;;;9.70;99.90;;;;;;6134264;23;20024;-84
2021/12/01 08:02:30;;;;;;;14.70;3.20;;;9.50;99.90;;;;;;6134584;23;20020;-85
2021/12/01 08:04:57;;;;;;;16.50;3.33;;;10.70;99.90;;;;;;6158870;23;20391;-87
2021/12/01 08:07:24;;;;;;;18.65;3.72;;;9.80;99.90;;;;;;6158895;23;20479;-86
2021/12/01 08:09:50;;;;;;;22.42;4.18;;;11.40;99.90;;;;;;6158921;23;20095;-85
2021/12/01 08:12:16;;;;;;;22.73;4.22;;;9.30;99.90;;;;;;6134082;23;20396;-88
2021/12/01 08:14:42;;;;;;;21.15;3.55;;;12.50;99.90;;;;;;6134218;23;20048;-88
2021/12/01 08:17:07;;;;;;;16.48;3.70;;;9.60;99.90;;;;;;6133858;23;20388;-85
2021/12/01 08:19:33;;;;;;;16.55;4.05;;;9.30;99.90;;;;;;6133985;23;20064;-88
2021/12/01 08:21:59;;;;;;;16.70;4.15;;;13.40;99.90;;;;;;6159335;23;20023;-89
2021/12/01 08:24:25;;;;;;;12.02;3.08;;;9.10;99.90;;;;;;6158616;23;20024;-89
2021/12/01 08:26:51;;;;;;;13.95;3.65;;;12.50;99.90;;;;;;6158498;23;20041;-89
2021/12/01 08:29:17;;;;;;;16.65;3.53;;;9.80;99.90;;;;;;6159005;23;20329;-89
2021/12/01 08:31:43;;;;;;;34.38;5.30;;;12.70;99.90;;;;;;6134017;23;20021;-89
2021/12/01 08:34:10;;;;;;;20.33;3.72;;;9.00;99.90;;;;;;6158504;23;20013;-89
2021/12/01 08:36:37;;;;;;;17.10;3.63;;;12.60;99.90;;;;;;6159308;23;20081;-88
2021/12/01 08:39:04;;;;;;;17.60;3.22;;;11.00;99.90;;;;;;6158499;23;20072;-89
2021/12/01 08:41:30;;;;;;;23.50;3.20;;;10.00;99.90;;;;;;6158882;23;20021;-88
2021/12/01 08:43:56;;;;;;;22.25;3.83;;;10.80;99.90;;;;;;6132322;23;20021;-84
2021/12/01 08:46:22;;;;;;;24.83;4.07;;;9.60;99.90;;;;;;6158336;23;20352;-84
2021/12/01 08:48:48;;;;;;;27.08;3.78;;;11.30;99.90;;;;;;6184953;23;20093;-85
2021/12/01 08:51:14;;;;;;;23.00;2.92;;;11.50;99.90;;;;;;6133990;23;20013;-87
2021/12/01 08:53:42;;;;;;;42.05;4.80;;;9.00;99.90;;;;;;6158106;23;20013;-87
2021/12/01 08:56:09;;;;;;;11.63;2.63;;;10.00;99.90;;;;;;6184847;23;20025;-90
2021/12/01 08:58:35;;;;;;;23.95;3.85;;;10.20;99.90;;;;;;6133378;23;20023;-86
2021/12/01 09:01:02;;;;;;;24.58;3.13;;;10.00;99.90;;;;;;6158285;23;20052;-85
2021/12/01 09:03:28;;;;;;;29.58;4.43;;;9.00;99.90;;;;;;6158489;23;20115;-85
2021/12/01 09:05:54;;;;;;;26.60;3.13;;;9.80;99.90;;;;;;6158051;23;20053;-87
2021/12/01 09:08:22;;;;;;;20.17;3.47;;;11.40;99.90;;;;;;6158194;23;20017;-86
2021/12/01 09:10:52;;;;;;;26.55;3.47;;;12.00;99.90;;;;;;6158860;23;20398;-89
2021/12/01 09:13:19;;;;;;;32.42;3.45;;;12.00;99.90;;;;;;6158789;23;20529;-88
2021/12/01 09:15:45;;;;;;;37.85;4.20;;;11.30;99.90;;;;;;6158193;23;20021;-88
2021/12/01 09:18:11;;;;;;;16.77;3.00;;;9.90;99.90;;;;;;6158042;23;20096;-88
2021/12/01 09:20:37;;;;;;;30.67;4.05;;;10.00;99.90;;;;;;6158173;23;20025;-84
2021/12/01 09:23:03;;;;;;;23.90;3.72;;;10.90;99.90;;;;;;6158392;23;20060;-91
2021/12/01 09:25:30;;;;;;;36.08;4.57;;;10.20;99.90;;;;;;6133685;23;20351;-86
2021/12/01 09:27:56;;;;;;;30.67;4.20;;;12.90;99.90;;;;;;6158529;23;20021;-86
2021/12/01 09:30:21;;;;;;;30.77;4.47;;;10.60;99.90;;;;;;6133678;23;20079;-86
2021/12/01 09:32:47;;;;;;;30.42;4.60;;;9.40;99.90;;;;;;6158049;23;20024;-87
2021/12/01 09:35:14;;;;;;;23.60;3.90;;;11.00;99.90;;;;;;6184923;23;20339;-86
2021/12/01 09:37:41;;;;;;;25.98;4.53;;;9.30;99.90;;;;;;6157947;23;20028;-89
2021/12/01 09:40:15;;;;;;;25.58;3.60;;;10.60;99.90;;;;;;6133515;23;20021;-90
2021/12/01 09:42:44;;;;;;;23.50;4.05;;;10.50;99.90;;;;;;6135753;23;20159;-86
2021/12/01 09:45:11;;;;;;;36.05;5.40;;;12.20;99.90;;;;;;6135625;23;20021;-86
2021/12/01 09:47:37;;;;;;;25.73;4.03;;;10.90;99.90;;;;;;6159959;23;20114;-87
2021/12/01 09:50:04;;;;;;;23.27;3.03;;;10.50;99.90;;;;;;6135730;23;20040;-88
2021/12/01 09:52:30;;;;;;;28.45;3.50;;;10.60;99.90;;;;;;6135703;23;20048;-89
2021/12/01 09:54:56;;;;;;;13.77;2.60;;;10.50;99.90;;;;;;6159845;23;20475;-86
2021/12/01 09:57:22;;;;;;;17.20;2.60;;;9.80;99.90;;;;;;6159969;23;20017;-85
2021/12/01 09:59:48;;;;;;;24.15;3.72;;;9.60;99.90;;;;;;6160000;23;20451;-85
2021/12/01 10:02:13;;;;;;;25.90;3.90;;;10.30;99.90;;;;;;6159559;23;20017;-86
2021/12/01 10:04:39;;;;;;;19.95;3.50;;;10.60;99.90;;;;;;6159775;23;20056;-87
2021/12/01 10:07:14;;;;;;;26.00;3.20;;;9.40;99.90;;;;;;6159185;23;20017;-87
2021/12/01 10:09:43;;;;;;;23.10;3.43;;;9.60;99.90;;;;;;6158865;23;20021;-89
2021/12/01 10:12:09;;;;;;;26.15;4.53;;;9.10;99.90;;;;;;6135500;23;20339;-89
2021/12/01 10:14:35;;;;;;;29.08;4.18;;;9.20;99.90;;;;;;6160480;23;20400;-90
2021/12/01 10:17:01;;;;;;;24.00;3.72;;;11.60;99.90;;;;;;6135103;23;20016;-88
2021/12/01 10:19:28;;;;;;;16.70;3.78;;;10.40;99.90;;;;;;6159742;23;20022;-87
2021/12/01 10:21:54;;;;;;;19.98;3.10;;;12.10;99.90;;;;;;6135267;23;20059;-88
2021/12/01 10:24:25;;;;;;;24.35;3.45;;;9.60;99.90;;;;;;6135077;23;20028;-90
2021/12/01 10:26:53;;;;;;;21.88;3.63;;;10.20;99.90;;;;;;6135604;23;20090;-91
2021/12/01 10:29:23;;;;;;;28.83;4.10;;;9.80;99.90;;;;;;6135288;23;20021;-91
2021/12/01 10:31:53;;;;;;;25.95;3.85;;;10.10;99.90;;;;;;6136147;23;20039;-92
2021/12/01 10:34:23;;;;;;;36.28;5.43;;;11.60;99.90;;;;;;6135124;23;20020;-91
2021/12/01 10:37:05;;;;;;;33.13;5.38;;;11.90;99.90;;;;;;6135262;23;20017;-90
2021/12/01 10:39:31;;;;;;;31.70;4.78;;;10.50;99.90;;;;;;6133285;23;20095;-89
2021/12/01 10:42:04;;;;;;;27.17;4.63;;;11.50;99.90;;;;;;6134443;23;20115;-89
2021/12/01 10:44:30;;;;;;;27.67;4.65;;;10.20;99.90;;;;;;6159537;23;20402;-89
2021/12/01 10:46:56;;;;;;;31.05;5.07;;;10.00;99.90;;;;;;6159810;23;20075;-89
2021/12/01 10:49:39;;;;;;;26.48;5.63;;;9.90;99.90;;;;;;6134880;23;20052;-89
2021/12/01 10:52:05;;;;;;;33.03;5.80;;;10.00;99.90;;;;;;6134919;23;20021;-88
2021/12/01 10:54:33;;;;;;;28.23;5.43;;;9.90;99.90;;;;;;6135683;23;20059;-90
2021/12/01 10:57:20;;;;;;;20.05;3.50;;;10.10;99.90;;;;;;6160146;23;20017;-84
2021/12/01 10:59:49;;;;;;;16.30;3.78;;;9.90;99.90;;;;;;6134326;23;20017;-86
2021/12/01 11:02:16;;;;;;;30.83;4.65;;;9.70;99.90;;;;;;6159024;23;20052;-90
2021/12/01 11:04:48;;;;;;;27.25;4.60;;;10.70;99.90;;;;;;6134576;23;20020;-87
2021/12/01 11:07:24;;;;;;;26.40;5.63;;;10.10;99.90;;;;;;6159410;23;20024;-86
2021/12/01 11:10:09;;;;;;;;;;;10.50;99.90;;;;;;6159692;23;20013;-85
2021/12/01 11:12:35;;;;;;;19.00;4.75;;;9.90;99.90;;;;;;6134262;23;19916;-84
2021/12/01 11:15:16;;;;;;;22.83;5.32;;;10.00;99.90;;;;;;6134081;23;20107;-85
2021/12/01 11:17:43;;;;;;;33.15;4.57;;;9.50;99.90;;;;;;6159088;23;20017;-86
2021/12/01 11:20:09;;;;;;;24.60;5.05;;;9.50;99.90;;;;;;6134664;23;20075;-85
2021/12/01 11:22:36;;;;;;;20.77;4.20;;;9.70;99.90;;;;;;6134454;23;20010;-85
2021/12/01 11:25:19;;;;;;;21.80;5.10;;;11.60;99.90;;;;;;6159019;23;20048;-85
2021/12/01 11:27:45;;;;;;;20.98;4.03;;;9.60;99.90;;;;;;6134292;23;20075;-86
2021/12/01 11:30:11;;;;;;;20.90;4.05;;;9.60;99.90;;;;;;6134496;23;20025;-86
2021/12/01 11:32:37;;;;;;;26.15;4.13;;;9.60;99.90;;;;;;6135244;23;20013;-85
2021/12/01 11:35:03;;;;;;;31.13;4.88;;;11.20;99.90;;;;;;6185798;23;20027;-86
2021/12/01 11:37:28;;;;;;;18.25;4.10;;;9.30;99.90;;;;;;6134393;23;20115;-86
2021/12/01 11:39:56;;;;;;;22.40;5.20;;;9.20;99.90;;;;;;6158921;23;20048;-86
2021/12/01 11:42:24;;;;;;;22.05;3.88;;;9.50;99.90;;;;;;6157123;23;20024;-85
2021/12/01 11:44:55;;;;;;;19.05;4.13;;;9.70;99.90;;;;;;6158856;23;20079;-88
2021/12/01 11:47:21;;;;;;;22.73;3.90;;;9.10;99.90;;;;;;6134414;23;20028;-88
2021/12/01 11:49:50;;;;;;;12.68;3.65;;;9.30;99.90;;;;;;6134450;23;20021;-90
2021/12/01 11:52:16;;;;;;;11.90;3.40;;;10.90;99.90;;;;;;6158859;23;20099;-87
2021/12/01 11:54:44;;;;;;;18.00;3.13;;;9.60;99.90;;;;;;6158975;23;20109;-87
2021/12/01 11:57:11;;;;;;;12.40;2.95;;;11.00;99.90;;;;;;6134308;23;20458;-89
2021/12/01 11:59:43;;;;;;;22.83;3.95;;;11.50;99.90;;;;;;6158771;23;20049;-89
2021/12/01 12:02:20;;;;;;;10.65;3.13;;;9.20;99.90;;;;;;6158271;23;20016;-87
2021/12/01 12:04:53;;;;;;;10.93;2.78;;;10.00;99.90;;;;;;6159119;23;20056;-89
2021/12/01 12:07:27;;;;;;;20.38;3.53;;;9.50;99.90;;;;;;6133287;23;20021;-87
2021/12/01 12:10:12;;;;;;;17.27;3.88;;;8.40;99.90;;;;;;6158567;23;20055;-87
2021/12/01 12:12:55;;;;;;;22.90;3.38;;;7.70;99.90;;;;;;6158681;23;20431;-87
2021/12/01 12:15:33;;;;;;;16.05;3.40;;;9.20;99.90;;;;;;6133981;23;20293;-87
2021/12/01 12:17:58;;;;;;;15.90;3.65;;;9.60;99.90;;;;;;6133808;23;20108;-85
2021/12/01 12:20:28;;;;;;;11.38;3.05;;;9.60;99.90;;;;;;6133784;23;20049;-87
2021/12/01 12:22:55;;;;;;;12.20;3.45;;;9.00;99.90;;;;;;6134041;23;20028;-88
2021/12/01 12:25:50;;;;;;;16.15;4.22;;;9.10;99.90;;;;;;6133327;23;20363;-88
2021/12/01 12:28:22;;;;;;;13.70;3.00;;;9.70;99.90;;;;;;6158102;23;20079;-88
2021/12/01 12:30:49;;;;;;;11.35;2.90;;;10.10;99.90;;;;;;6134298;23;20028;-90
2021/12/01 12:33:24;;;;;;;22.95;4.32;;;9.20;99.90;;;;;;6133845;23;20017;-90
2021/12/01 12:35:56;;;;;;;14.52;3.35;;;9.30;99.90;;;;;;6158242;23;20021;-89
2021/12/01 12:38:23;;;;;;;14.27;3.22;;;9.60;99.90;;;;;;6133812;23;20068;-91
2021/12/01 12:41:10;;;;;;;16.98;3.28;;;9.30;99.90;;;;;;6134380;23;20252;-86
2021/12/01 12:43:37;;;;;;;16.70;3.47;;;9.50;99.90;;;;;;6133850;23;20016;-86
2021/12/01 12:46:12;;;;;;;18.77;3.47;;;9.90;99.90;;;;;;6158275;23;20408;-90
2021/12/01 12:48:40;;;;;;;18.60;2.60;;;8.90;99.90;;;;;;6134422;23;20018;-88
2021/12/01 12:51:13;;;;;;;15.30;3.30;;;9.50;99.90;;;;;;6134255;23;20084;-87
2021/12/01 12:53:59;;;;;;;33.42;4.03;;;9.50;99.90;;;;;;6134006;23;20343;-91